sensor_id;sensor_type;location;lat;lon;timestamp;P1;durP1;ratioP1;P2;durP2;ratioP2
28483;SDS011;15704;48.834;8.736;2024-02-28T00:01:49;4.97;;;4.00;;
28483;SDS011;15704;48.834;8.736;2024-02-28T00:04:19;6.18;;;4.53;;
28483;SDS011;15704;48.834;8.736;2024-02-28T00:06:46;4.07;;;3.53;;
28483;SDS011;15704;48.834;8.736;2024-02-28T00:09:13;4.43;;;3.88;;
28483;SDS011;15704;48.834;8.736;2024-02-28T00:11:43;4.43;;;4.00;;
28483;SDS011;15704;48.834;8.736;2024-02-28T00:14:11;4.50;;;3.78;;
28483;SDS011;15704;48.834;8.736;2024-02-28T00:16:41;4.35;;;3.75;;
28483;SDS011;15704;48.834;8.736;2024-02-28T00:19:09;4.85;;;3.80;;
28483;SDS011;15704;48.834;8.736;2024-02-28T00:21:40;4.53;;;3.78;;
28483;SDS011;15704;48.834;8.736;2024-02-28T00:24:07;4.50;;;3.60;;
28483;SDS011;15704;48.834;8.736;2024-02-28T00:26:35;5.32;;;3.53;;
28483;SDS011;15704;48.834;8.736;2024-02-28T00:29:02;5.97;;;4.43;;
28483;SDS011;15704;48.834;8.736;2024-02-28T00:31:29;4.88;;;3.78;;
28483;SDS011;15704;48.834;8.736;2024-02-28T00:33:56;4.28;;;3.55;;
28483;SDS011;15704;48.834;8.736;2024-02-28T00:36:22;4.50;;;3.80;;
28483;SDS011;15704;48.834;8.736;2024-02-28T00:38:49;5.95;;;4.22;;
28483;SDS011;15704;48.834;8.736;2024-02-28T00:41:16;5.32;;;4.00;;
28483;SDS011;15704;48.834;8.736;2024-02-28T00:43:43;5.03;;;4.00;;
28483;SDS011;15704;48.834;8.736;2024-02-28T00:46:10;4.75;;;4.00;;
28483;SDS011;15704;48.834;8.736;2024-02-28T00:48:38;4.53;;;3.70;;
28483;SDS011;15704;48.834;8.736;2024-02-28T00:51:06;5.03;;;3.80;;
28483;SDS011;15704;48.834;8.736;2024-02-28T00:53:36;6.20;;;3.97;;
28483;SDS011;15704;48.834;8.736;2024-02-28T00:56:03;4.38;;;3.78;;
28483;SDS011;15704;48.834;8.736;2024-02-28T00:58:30;4.88;;;3.92;;
28483;SDS011;15704;48.834;8.736;2024-02-28T01:00:57;4.22;;;3.72;;
28483;SDS011;15704;48.834;8.736;2024-02-28T01:03:24;5.53;;;4.05;;
28483;SDS011;15704;48.834;8.736;2024-02-28T01:05:54;5.28;;;3.85;;
28483;SDS011;15704;48.834;8.736;2024-02-28T01:08:21;4.88;;;4.05;;
28483;SDS011;15704;48.834;8.736;2024-02-28T01:10:48;5.22;;;3.53;;
28483;SDS011;15704;48.834;8.736;2024-02-28T01:13:15;5.38;;;3.90;;
28483;SDS011;15704;48.834;8.736;2024-02-28T01:15:42;4.20;;;3.50;;
28483;SDS011;15704;48.834;8.736;2024-02-28T01:18:09;4.78;;;3.75;;
28483;SDS011;15704;48.834;8.736;2024-02-28T01:20:36;5.05;;;3.97;;
28483;SDS011;15704;48.834;8.736;2024-02-28T01:23:03;5.35;;;4.05;;
28483;SDS011;15704;48.834;8.736;2024-02-28T01:25:30;5.53;;;4.00;;
28483;SDS011;15704;48.834;8.736;2024-02-28T01:27:57;4.30;;;3.53;;
28483;SDS011;15704;48.834;8.736;2024-02-28T01:30:26;4.03;;;3.47;;
28483;SDS011;15704;48.834;8.736;2024-02-28T01:32:53;4.55;;;3.78;;
28483;SDS011;15704;48.834;8.736;2024-02-28T01:35:20;5.28;;;4.25;;
28483;SDS011;15704;48.834;8.736;2024-02-28T01:37:48;4.90;;;3.95;;
28483;SDS011;15704;48.834;8.736;2024-02-28T01:40:15;4.38;;;3.40;;
28483;SDS011;15704;48.834;8.736;2024-02-28T01:42:41;4.40;;;3.60;;
28483;SDS011;15704;48.834;8.736;2024-02-28T01:45:09;4.18;;;3.50;;
28483;SDS011;15704;48.834;8.736;2024-02-28T01:47:42;5.93;;;4.00;;
28483;SDS011;15704;48.834;8.736;2024-02-28T01:50:10;5.57;;;4.35;;
28483;SDS011;15704;48.834;8.736;2024-02-28T01:52:38;5.32;;;4.10;;
28483;SDS011;15704;48.834;8.736;2024-02-28T01:55:06;5.13;;;4.07;;
28483;SDS011;15704;48.834;8.736;2024-02-28T01:57:33;4.82;;;3.67;;
28483;SDS011;15704;48.834;8.736;2024-02-28T02:00:04;5.80;;;3.75;;
28483;SDS011;15704;48.834;8.736;2024-02-28T02:02:34;4.68;;;3.70;;
28483;SDS011;15704;48.834;8.736;2024-02-28T02:05:04;5.25;;;4.18;;
28483;SDS011;15704;48.834;8.736;2024-02-28T02:07:31;5.55;;;3.58;;
28483;SDS011;15704;48.834;8.736;2024-02-28T02:09:58;5.25;;;3.92;;
28483;SDS011;15704;48.834;8.736;2024-02-28T02:12:25;5.65;;;3.88;;
28483;SDS011;15704;48.834;8.736;2024-02-28T02:14:52;4.70;;;3.80;;
28483;SDS011;15704;48.834;8.736;2024-02-28T02:17:19;5.03;;;3.55;;
28483;SDS011;15704;48.834;8.736;2024-02-28T02:19:45;5.32;;;3.70;;
28483;SDS011;15704;48.834;8.736;2024-02-28T02:22:13;4.35;;;3.83;;
28483;SDS011;15704;48.834;8.736;2024-02-28T02:24:41;5.80;;;3.85;;
28483;SDS011;15704;48.834;8.736;2024-02-28T02:27:08;5.13;;;3.80;;
28483;SDS011;15704;48.834;8.736;2024-02-28T02:29:34;5.63;;;4.00;;
28483;SDS011;15704;48.834;8.736;2024-02-28T02:32:01;4.97;;;4.05;;
28483;SDS011;15704;48.834;8.736;2024-02-28T02:34:28;4.82;;;3.80;;
28483;SDS011;15704;48.834;8.736;2024-02-28T02:36:55;5.22;;;3.72;;
28483;SDS011;15704;48.834;8.736;2024-02-28T02:39:22;5.70;;;4.50;;
28483;SDS011;15704;48.834;8.736;2024-02-28T02:41:48;4.80;;;3.90;;
28483;SDS011;15704;48.834;8.736;2024-02-28T02:44:18;5.15;;;3.92;;
28483;SDS011;15704;48.834;8.736;2024-02-28T02:46:45;5.03;;;4.13;;
28483;SDS011;15704;48.834;8.736;2024-02-28T02:49:12;5.00;;;3.58;;
28483;SDS011;15704;48.834;8.736;2024-02-28T02:51:39;4.65;;;3.88;;
28483;SDS011;15704;48.834;8.736;2024-02-28T02:54:05;4.88;;;3.80;;
28483;SDS011;15704;48.834;8.736;2024-02-28T02:56:32;5.10;;;3.55;;
28483;SDS011;15704;48.834;8.736;2024-02-28T02:58:59;3.90;;;3.45;;
28483;SDS011;15704;48.834;8.736;2024-02-28T03:01:26;5.13;;;3.95;;
28483;SDS011;15704;48.834;8.736;2024-02-28T03:03:53;5.03;;;3.80;;
28483;SDS011;15704;48.834;8.736;2024-02-28T03:06:20;4.68;;;3.90;;
28483;SDS011;15704;48.834;8.736;2024-02-28T03:08:47;4.65;;;3.67;;
28483;SDS011;15704;48.834;8.736;2024-02-28T03:11:14;5.20;;;4.07;;
28483;SDS011;15704;48.834;8.736;2024-02-28T03:13:41;5.00;;;3.90;;
28483;SDS011;15704;48.834;8.736;2024-02-28T03:16:08;5.13;;;3.70;;
28483;SDS011;15704;48.834;8.736;2024-02-28T03:18:34;4.68;;;3.42;;
28483;SDS011;15704;48.834;8.736;2024-02-28T03:21:01;3.97;;;3.33;;
28483;SDS011;15704;48.834;8.736;2024-02-28T03:23:28;6.20;;;3.92;;
28483;SDS011;15704;48.834;8.736;2024-02-28T03:25:55;3.67;;;3.30;;
28483;SDS011;15704;48.834;8.736;2024-02-28T03:28:22;4.55;;;3.50;;
28483;SDS011;15704;48.834;8.736;2024-02-28T03:30:48;4.75;;;3.67;;
28483;SDS011;15704;48.834;8.736;2024-02-28T03:33:15;4.72;;;3.88;;
28483;SDS011;15704;48.834;8.736;2024-02-28T03:35:42;6.93;;;3.95;;
28483;SDS011;15704;48.834;8.736;2024-02-28T03:38:09;4.97;;;3.97;;
28483;SDS011;15704;48.834;8.736;2024-02-28T03:40:36;4.28;;;3.72;;
28483;SDS011;15704;48.834;8.736;2024-02-28T03:43:03;4.30;;;3.78;;
28483;SDS011;15704;48.834;8.736;2024-02-28T03:45:29;4.75;;;3.45;;
28483;SDS011;15704;48.834;8.736;2024-02-28T03:47:56;4.55;;;3.60;;
28483;SDS011;15704;48.834;8.736;2024-02-28T03:50:23;3.72;;;3.25;;
28483;SDS011;15704;48.834;8.736;2024-02-28T03:52:50;3.97;;;3.45;;
28483;SDS011;15704;48.834;8.736;2024-02-28T03:55:17;4.07;;;3.38;;
28483;SDS011;15704;48.834;8.736;2024-02-28T03:57:46;4.35;;;3.67;;
28483;SDS011;15704;48.834;8.736;2024-02-28T04:00:14;5.85;;;3.97;;
28483;SDS011;15704;48.834;8.736;2024-02-28T04:02:41;4.40;;;3.45;;
28483;SDS011;15704;48.834;8.736;2024-02-28T04:05:08;4.75;;;3.65;;
28483;SDS011;15704;48.834;8.736;2024-02-28T04:07:36;4.65;;;3.70;;
28483;SDS011;15704;48.834;8.736;2024-02-28T04:10:03;4.43;;;3.40;;
28483;SDS011;15704;48.834;8.736;2024-02-28T04:12:31;4.53;;;3.30;;
28483;SDS011;15704;48.834;8.736;2024-02-28T04:15:01;4.80;;;3.40;;
28483;SDS011;15704;48.834;8.736;2024-02-28T04:17:29;4.82;;;3.42;;
28483;SDS011;15704;48.834;8.736;2024-02-28T04:19:55;3.85;;;3.30;;
28483;SDS011;15704;48.834;8.736;2024-02-28T04:22:23;4.38;;;3.42;;
28483;SDS011;15704;48.834;8.736;2024-02-28T04:24:50;4.40;;;3.42;;
28483;SDS011;15704;48.834;8.736;2024-02-28T04:27:17;4.70;;;3.22;;
28483;SDS011;15704;48.834;8.736;2024-02-28T04:29:44;4.80;;;3.58;;
28483;SDS011;15704;48.834;8.736;2024-02-28T04:32:11;4.15;;;3.22;;
28483;SDS011;15704;48.834;8.736;2024-02-28T04:34:38;4.43;;;3.47;;
28483;SDS011;15704;48.834;8.736;2024-02-28T04:37:04;4.90;;;3.63;;
28483;SDS011;15704;48.834;8.736;2024-02-28T04:39:31;4.38;;;3.45;;
28483;SDS011;15704;48.834;8.736;2024-02-28T04:41:58;5.05;;;3.67;;
28483;SDS011;15704;48.834;8.736;2024-02-28T04:44:25;4.40;;;3.60;;
28483;SDS011;15704;48.834;8.736;2024-02-28T04:46:52;4.03;;;3.35;;
28483;SDS011;15704;48.834;8.736;2024-02-28T04:49:18;4.68;;;3.58;;
28483;SDS011;15704;48.834;8.736;2024-02-28T04:51:46;4.45;;;3.63;;
28483;SDS011;15704;48.834;8.736;2024-02-28T04:54:14;4.45;;;3.50;;
28483;SDS011;15704;48.834;8.736;2024-02-28T04:56:41;4.28;;;3.45;;
28483;SDS011;15704;48.834;8.736;2024-02-28T04:59:08;4.28;;;3.40;;
28483;SDS011;15704;48.834;8.736;2024-02-28T05:01:38;3.97;;;3.30;;
28483;SDS011;15704;48.834;8.736;2024-02-28T05:04:09;5.45;;;3.92;;
28483;SDS011;15704;48.834;8.736;2024-02-28T05:06:36;4.82;;;3.53;;
28483;SDS011;15704;48.834;8.736;2024-02-28T05:09:05;4.03;;;3.35;;
28483;SDS011;15704;48.834;8.736;2024-02-28T05:11:33;3.47;;;3.17;;
28483;SDS011;15704;48.834;8.736;2024-02-28T05:14:01;4.25;;;3.65;;
28483;SDS011;15704;48.834;8.736;2024-02-28T05:16:27;4.82;;;3.67;;
28483;SDS011;15704;48.834;8.736;2024-02-28T05:18:54;4.82;;;3.70;;
28483;SDS011;15704;48.834;8.736;2024-02-28T05:21:21;4.18;;;3.20;;
28483;SDS011;15704;48.834;8.736;2024-02-28T05:23:48;3.88;;;3.22;;
28483;SDS011;15704;48.834;8.736;2024-02-28T05:26:15;4.15;;;3.33;;
28483;SDS011;15704;48.834;8.736;2024-02-28T05:28:42;5.40;;;3.50;;
28483;SDS011;15704;48.834;8.736;2024-02-28T05:31:24;5.55;;;3.30;;
28483;SDS011;15704;48.834;8.736;2024-02-28T05:33:53;3.88;;;3.15;;
28483;SDS011;15704;48.834;8.736;2024-02-28T05:36:21;4.38;;;3.38;;
28483;SDS011;15704;48.834;8.736;2024-02-28T05:38:49;4.45;;;3.30;;
28483;SDS011;15704;48.834;8.736;2024-02-28T05:41:19;4.20;;;3.28;;
28483;SDS011;15704;48.834;8.736;2024-02-28T05:43:47;4.15;;;3.22;;
28483;SDS011;15704;48.834;8.736;2024-02-28T05:46:15;3.83;;;3.38;;
28483;SDS011;15704;48.834;8.736;2024-02-28T05:48:43;4.65;;;3.50;;
28483;SDS011;15704;48.834;8.736;2024-02-28T05:51:11;5.00;;;3.10;;
28483;SDS011;15704;48.834;8.736;2024-02-28T05:53:39;4.10;;;3.17;;
28483;SDS011;15704;48.834;8.736;2024-02-28T05:56:07;4.85;;;3.40;;
28483;SDS011;15704;48.834;8.736;2024-02-28T05:58:46;4.43;;;3.40;;
28483;SDS011;15704;48.834;8.736;2024-02-28T06:01:17;3.75;;;3.08;;
28483;SDS011;15704;48.834;8.736;2024-02-28T06:03:47;3.80;;;3.07;;
28483;SDS011;15704;48.834;8.736;2024-02-28T06:06:14;4.00;;;2.90;;
28483;SDS011;15704;48.834;8.736;2024-02-28T06:08:42;3.42;;;2.85;;
28483;SDS011;15704;48.834;8.736;2024-02-28T06:11:10;4.50;;;3.10;;
28483;SDS011;15704;48.834;8.736;2024-02-28T06:13:37;3.20;;;2.88;;
28483;SDS011;15704;48.834;8.736;2024-02-28T06:16:03;3.70;;;3.28;;
28483;SDS011;15704;48.834;8.736;2024-02-28T06:18:30;4.32;;;3.30;;
28483;SDS011;15704;48.834;8.736;2024-02-28T06:21:00;3.67;;;3.00;;
28483;SDS011;15704;48.834;8.736;2024-02-28T06:23:27;4.13;;;3.20;;
28483;SDS011;15704;48.834;8.736;2024-02-28T06:25:56;3.97;;;3.15;;
28483;SDS011;15704;48.834;8.736;2024-02-28T06:28:23;4.15;;;3.30;;
28483;SDS011;15704;48.834;8.736;2024-02-28T06:30:50;4.35;;;2.95;;
28483;SDS011;15704;48.834;8.736;2024-02-28T06:33:17;3.60;;;2.72;;
28483;SDS011;15704;48.834;8.736;2024-02-28T06:35:45;4.53;;;3.30;;
28483;SDS011;15704;48.834;8.736;2024-02-28T06:38:12;3.30;;;2.97;;
28483;SDS011;15704;48.834;8.736;2024-02-28T06:40:39;3.55;;;2.88;;
28483;SDS011;15704;48.834;8.736;2024-02-28T06:43:06;3.40;;;3.10;;
28483;SDS011;15704;48.834;8.736;2024-02-28T06:45:33;6.80;;;3.17;;
28483;SDS011;15704;48.834;8.736;2024-02-28T06:48:00;3.70;;;3.05;;
28483;SDS011;15704;48.834;8.736;2024-02-28T06:50:30;4.30;;;3.08;;
28483;SDS011;15704;48.834;8.736;2024-02-28T06:52:56;3.40;;;3.08;;
28483;SDS011;15704;48.834;8.736;2024-02-28T06:55:23;3.80;;;3.20;;
28483;SDS011;15704;48.834;8.736;2024-02-28T06:57:50;3.65;;;2.70;;
28483;SDS011;15704;48.834;8.736;2024-02-28T07:00:17;3.60;;;2.70;;
28483;SDS011;15704;48.834;8.736;2024-02-28T07:02:45;4.03;;;2.85;;
28483;SDS011;15704;48.834;8.736;2024-02-28T07:05:12;3.38;;;2.80;;
28483;SDS011;15704;48.834;8.736;2024-02-28T07:07:39;4.18;;;3.35;;
28483;SDS011;15704;48.834;8.736;2024-02-28T07:10:06;3.90;;;2.97;;
28483;SDS011;15704;48.834;8.736;2024-02-28T07:12:36;3.95;;;3.30;;
28483;SDS011;15704;48.834;8.736;2024-02-28T07:15:03;3.53;;;3.10;;
28483;SDS011;15704;48.834;8.736;2024-02-28T07:17:30;3.20;;;2.65;;
28483;SDS011;15704;48.834;8.736;2024-02-28T07:19:57;3.13;;;2.83;;
28483;SDS011;15704;48.834;8.736;2024-02-28T07:22:24;3.63;;;2.90;;
28483;SDS011;15704;48.834;8.736;2024-02-28T07:24:51;3.20;;;2.80;;
28483;SDS011;15704;48.834;8.736;2024-02-28T07:27:17;3.88;;;3.33;;
28483;SDS011;15704;48.834;8.736;2024-02-28T07:29:44;4.88;;;3.22;;
28483;SDS011;15704;48.834;8.736;2024-02-28T07:32:11;3.80;;;2.97;;
28483;SDS011;15704;48.834;8.736;2024-02-28T07:34:38;6.35;;;3.60;;
28483;SDS011;15704;48.834;8.736;2024-02-28T07:37:06;4.30;;;3.28;;
28483;SDS011;15704;48.834;8.736;2024-02-28T07:39:33;4.97;;;3.53;;
28483;SDS011;15704;48.834;8.736;2024-02-28T07:41:59;3.90;;;3.13;;
28483;SDS011;15704;48.834;8.736;2024-02-28T07:44:26;4.25;;;3.47;;
28483;SDS011;15704;48.834;8.736;2024-02-28T07:46:59;3.72;;;3.13;;
28483;SDS011;15704;48.834;8.736;2024-02-28T07:49:26;4.22;;;3.20;;
28483;SDS011;15704;48.834;8.736;2024-02-28T07:51:54;4.05;;;3.22;;
28483;SDS011;15704;48.834;8.736;2024-02-28T07:54:22;3.97;;;3.00;;
28483;SDS011;15704;48.834;8.736;2024-02-28T07:56:48;4.07;;;3.47;;
28483;SDS011;15704;48.834;8.736;2024-02-28T07:59:15;4.97;;;3.42;;
28483;SDS011;15704;48.834;8.736;2024-02-28T08:01:42;5.18;;;3.28;;
28483;SDS011;15704;48.834;8.736;2024-02-28T08:04:10;4.13;;;2.83;;
28483;SDS011;15704;48.834;8.736;2024-02-28T08:06:36;4.45;;;3.30;;
28483;SDS011;15704;48.834;8.736;2024-02-28T08:09:05;3.97;;;2.97;;
28483;SDS011;15704;48.834;8.736;2024-02-28T08:11:37;4.97;;;3.25;;
28483;SDS011;15704;48.834;8.736;2024-02-28T08:14:04;3.70;;;2.97;;
28483;SDS011;15704;48.834;8.736;2024-02-28T08:16:31;4.85;;;3.22;;
28483;SDS011;15704;48.834;8.736;2024-02-28T08:18:58;4.03;;;3.35;;
28483;SDS011;15704;48.834;8.736;2024-02-28T08:21:25;3.42;;;2.78;;
28483;SDS011;15704;48.834;8.736;2024-02-28T08:23:52;4.93;;;3.70;;
28483;SDS011;15704;48.834;8.736;2024-02-28T08:26:19;4.93;;;3.30;;
28483;SDS011;15704;48.834;8.736;2024-02-28T08:28:46;4.90;;;3.53;;
28483;SDS011;15704;48.834;8.736;2024-02-28T08:31:13;4.43;;;3.28;;
28483;SDS011;15704;48.834;8.736;2024-02-28T08:33:40;5.18;;;3.75;;
28483;SDS011;15704;48.834;8.736;2024-02-28T08:36:08;5.47;;;3.88;;
28483;SDS011;15704;48.834;8.736;2024-02-28T08:38:34;4.93;;;3.35;;
28483;SDS011;15704;48.834;8.736;2024-02-28T08:41:03;4.50;;;3.33;;
28483;SDS011;15704;48.834;8.736;2024-02-28T08:43:30;4.72;;;3.10;;
28483;SDS011;15704;48.834;8.736;2024-02-28T08:45:58;3.88;;;3.00;;
28483;SDS011;15704;48.834;8.736;2024-02-28T08:48:25;3.53;;;2.90;;
28483;SDS011;15704;48.834;8.736;2024-02-28T08:50:52;4.95;;;3.55;;
28483;SDS011;15704;48.834;8.736;2024-02-28T08:53:19;4.43;;;3.45;;
28483;SDS011;15704;48.834;8.736;2024-02-28T08:55:46;4.10;;;3.30;;
28483;SDS011;15704;48.834;8.736;2024-02-28T08:58:12;4.53;;;3.80;;
28483;SDS011;15704;48.834;8.736;2024-02-28T09:00:39;4.80;;;2.95;;
28483;SDS011;15704;48.834;8.736;2024-02-28T09:03:06;4.40;;;3.40;;
28483;SDS011;15704;48.834;8.736;2024-02-28T09:05:33;4.22;;;3.03;;
28483;SDS011;15704;48.834;8.736;2024-02-28T09:08:00;4.90;;;3.70;;
28483;SDS011;15704;48.834;8.736;2024-02-28T09:10:27;6.50;;;3.60;;
28483;SDS011;15704;48.834;8.736;2024-02-28T09:12:55;4.82;;;3.65;;
28483;SDS011;15704;48.834;8.736;2024-02-28T09:15:22;4.25;;;3.22;;
28483;SDS011;15704;48.834;8.736;2024-02-28T09:17:48;4.40;;;3.30;;
28483;SDS011;15704;48.834;8.736;2024-02-28T09:20:15;3.97;;;3.08;;
28483;SDS011;15704;48.834;8.736;2024-02-28T09:30:12;4.75;;;3.25;;
28483;SDS011;15704;48.834;8.736;2024-02-28T09:36:51;3.75;;;3.03;;
28483;SDS011;15704;48.834;8.736;2024-02-28T09:39:18;5.05;;;3.60;;
28483;SDS011;15704;48.834;8.736;2024-02-28T09:41:47;4.95;;;3.47;;
28483;SDS011;15704;48.834;8.736;2024-02-28T09:44:19;4.40;;;3.00;;
28483;SDS011;15704;48.834;8.736;2024-02-28T09:46:51;4.43;;;3.00;;
28483;SDS011;15704;48.834;8.736;2024-02-28T09:49:18;3.30;;;2.70;;
28483;SDS011;15704;48.834;8.736;2024-02-28T09:51:47;4.70;;;3.25;;
28483;SDS011;15704;48.834;8.736;2024-02-28T09:54:18;3.83;;;3.25;;
28483;SDS011;15704;48.834;8.736;2024-02-28T09:56:47;3.30;;;2.78;;
28483;SDS011;15704;48.834;8.736;2024-02-28T09:59:18;4.32;;;3.20;;
28483;SDS011;15704;48.834;8.736;2024-02-28T10:01:51;4.32;;;3.40;;
28483;SDS011;15704;48.834;8.736;2024-02-28T10:04:23;4.05;;;2.85;;
28483;SDS011;15704;48.834;8.736;2024-02-28T10:06:51;4.75;;;3.35;;
28483;SDS011;15704;48.834;8.736;2024-02-28T10:09:18;4.85;;;3.30;;
28483;SDS011;15704;48.834;8.736;2024-02-28T10:11:45;5.32;;;3.35;;
28483;SDS011;15704;48.834;8.736;2024-02-28T10:14:18;4.43;;;3.13;;
28483;SDS011;15704;48.834;8.736;2024-02-28T10:16:45;3.40;;;3.08;;
28483;SDS011;15704;48.834;8.736;2024-02-28T10:19:12;4.22;;;3.03;;
28483;SDS011;15704;48.834;8.736;2024-02-28T10:21:39;3.95;;;3.38;;
28483;SDS011;15704;48.834;8.736;2024-02-28T10:24:06;3.35;;;3.05;;
28483;SDS011;15704;48.834;8.736;2024-02-28T10:26:41;3.83;;;3.20;;
28483;SDS011;15704;48.834;8.736;2024-02-28T10:29:12;4.88;;;3.17;;
28483;SDS011;15704;48.834;8.736;2024-02-28T10:31:39;4.30;;;3.20;;
28483;SDS011;15704;48.834;8.736;2024-02-28T10:34:07;3.90;;;3.15;;
28483;SDS011;15704;48.834;8.736;2024-02-28T10:36:35;4.68;;;3.20;;
28483;SDS011;15704;48.834;8.736;2024-02-28T10:39:03;3.85;;;3.10;;
28483;SDS011;15704;48.834;8.736;2024-02-28T10:41:31;3.83;;;2.95;;
28483;SDS011;15704;48.834;8.736;2024-02-28T10:43:59;6.47;;;3.08;;
28483;SDS011;15704;48.834;8.736;2024-02-28T10:46:27;5.80;;;3.28;;
28483;SDS011;15704;48.834;8.736;2024-02-28T10:49:02;4.20;;;3.33;;
28483;SDS011;15704;48.834;8.736;2024-02-28T10:51:30;4.10;;;3.25;;
28483;SDS011;15704;48.834;8.736;2024-02-28T10:54:09;4.57;;;3.40;;
28483;SDS011;15704;48.834;8.736;2024-02-28T10:56:41;3.97;;;3.08;;
28483;SDS011;15704;48.834;8.736;2024-02-28T11:01:42;3.67;;;2.60;;
28483;SDS011;15704;48.834;8.736;2024-02-28T11:04:12;4.00;;;3.08;;
28483;SDS011;15704;48.834;8.736;2024-02-28T11:06:48;4.22;;;3.33;;
28483;SDS011;15704;48.834;8.736;2024-02-28T11:09:24;3.13;;;2.80;;
28483;SDS011;15704;48.834;8.736;2024-02-28T11:11:52;3.28;;;2.70;;
28483;SDS011;15704;48.834;8.736;2024-02-28T11:14:20;4.78;;;3.17;;
28483;SDS011;15704;48.834;8.736;2024-02-28T11:16:59;3.92;;;3.20;;
28483;SDS011;15704;48.834;8.736;2024-02-28T11:19:28;3.80;;;3.10;;
28483;SDS011;15704;48.834;8.736;2024-02-28T11:21:59;4.28;;;2.80;;
28483;SDS011;15704;48.834;8.736;2024-02-28T11:24:31;3.42;;;3.00;;
28483;SDS011;15704;48.834;8.736;2024-02-28T11:27:00;3.50;;;3.17;;
28483;SDS011;15704;48.834;8.736;2024-02-28T11:29:29;4.35;;;3.03;;
28483;SDS011;15704;48.834;8.736;2024-02-28T11:31:57;5.13;;;3.45;;
28483;SDS011;15704;48.834;8.736;2024-02-28T11:34:24;2.92;;;2.60;;
28483;SDS011;15704;48.834;8.736;2024-02-28T11:36:51;3.97;;;3.38;;
28483;SDS011;15704;48.834;8.736;2024-02-28T11:39:19;3.60;;;2.88;;
28483;SDS011;15704;48.834;8.736;2024-02-28T11:41:47;3.97;;;2.95;;
28483;SDS011;15704;48.834;8.736;2024-02-28T11:44:18;3.85;;;2.97;;
28483;SDS011;15704;48.834;8.736;2024-02-28T11:46:45;3.80;;;2.75;;
28483;SDS011;15704;48.834;8.736;2024-02-28T11:49:13;4.22;;;3.05;;
28483;SDS011;15704;48.834;8.736;2024-02-28T11:51:43;4.32;;;3.38;;
28483;SDS011;15704;48.834;8.736;2024-02-28T11:54:11;4.38;;;3.30;;
28483;SDS011;15704;48.834;8.736;2024-02-28T11:56:41;4.53;;;3.33;;
28483;SDS011;15704;48.834;8.736;2024-02-28T11:59:08;4.47;;;2.90;;
28483;SDS011;15704;48.834;8.736;2024-02-28T12:01:41;4.45;;;3.40;;
28483;SDS011;15704;48.834;8.736;2024-02-28T12:04:11;3.63;;;2.70;;
28483;SDS011;15704;48.834;8.736;2024-02-28T12:06:38;3.42;;;2.80;;
28483;SDS011;15704;48.834;8.736;2024-02-28T12:09:10;3.45;;;3.08;;
28483;SDS011;15704;48.834;8.736;2024-02-28T12:11:49;3.85;;;2.75;;
28483;SDS011;15704;48.834;8.736;2024-02-28T12:14:16;3.50;;;3.20;;
28483;SDS011;15704;48.834;8.736;2024-02-28T12:16:43;3.53;;;2.90;;
28483;SDS011;15704;48.834;8.736;2024-02-28T12:19:12;4.15;;;3.30;;
28483;SDS011;15704;48.834;8.736;2024-02-28T12:21:40;4.03;;;2.78;;
28483;SDS011;15704;48.834;8.736;2024-02-28T12:24:07;4.82;;;3.03;;
28483;SDS011;15704;48.834;8.736;2024-02-28T12:26:36;3.65;;;2.97;;
28483;SDS011;15704;48.834;8.736;2024-02-28T12:29:03;3.25;;;2.80;;
28483;SDS011;15704;48.834;8.736;2024-02-28T12:31:30;4.07;;;3.28;;
28483;SDS011;15704;48.834;8.736;2024-02-28T12:33:57;3.65;;;3.15;;
28483;SDS011;15704;48.834;8.736;2024-02-28T12:36:24;4.50;;;3.20;;
28483;SDS011;15704;48.834;8.736;2024-02-28T12:38:52;3.88;;;3.17;;
28483;SDS011;15704;48.834;8.736;2024-02-28T12:41:19;4.07;;;3.28;;
28483;SDS011;15704;48.834;8.736;2024-02-28T12:43:46;3.25;;;2.75;;
28483;SDS011;15704;48.834;8.736;2024-02-28T12:46:13;4.43;;;3.33;;
28483;SDS011;15704;48.834;8.736;2024-02-28T12:48:40;4.03;;;3.10;;
28483;SDS011;15704;48.834;8.736;2024-02-28T12:51:11;3.80;;;3.03;;
28483;SDS011;15704;48.834;8.736;2024-02-28T12:53:46;4.53;;;3.13;;
28483;SDS011;15704;48.834;8.736;2024-02-28T12:56:17;4.67;;;3.30;;
28483;SDS011;15704;48.834;8.736;2024-02-28T12:58:44;4.43;;;3.33;;
28483;SDS011;15704;48.834;8.736;2024-02-28T13:01:11;3.78;;;3.38;;
28483;SDS011;15704;48.834;8.736;2024-02-28T13:03:38;3.88;;;3.08;;
28483;SDS011;15704;48.834;8.736;2024-02-28T13:06:05;3.65;;;3.08;;
28483;SDS011;15704;48.834;8.736;2024-02-28T13:08:32;4.45;;;3.28;;
28483;SDS011;15704;48.834;8.736;2024-02-28T13:10:58;3.85;;;2.90;;
28483;SDS011;15704;48.834;8.736;2024-02-28T13:13:25;4.32;;;3.38;;
28483;SDS011;15704;48.834;8.736;2024-02-28T13:15:52;3.20;;;2.83;;
28483;SDS011;15704;48.834;8.736;2024-02-28T13:18:19;3.85;;;3.00;;
28483;SDS011;15704;48.834;8.736;2024-02-28T13:20:46;3.00;;;2.67;;
28483;SDS011;15704;48.834;8.736;2024-02-28T13:23:13;3.90;;;2.90;;
28483;SDS011;15704;48.834;8.736;2024-02-28T13:25:39;3.42;;;2.78;;
28483;SDS011;15704;48.834;8.736;2024-02-28T13:28:06;3.35;;;2.67;;
28483;SDS011;15704;48.834;8.736;2024-02-28T13:30:33;3.50;;;3.10;;
28483;SDS011;15704;48.834;8.736;2024-02-28T13:33:03;3.83;;;3.20;;
28483;SDS011;15704;48.834;8.736;2024-02-28T13:35:30;3.10;;;2.78;;
28483;SDS011;15704;48.834;8.736;2024-02-28T13:37:57;5.25;;;3.22;;
28483;SDS011;15704;48.834;8.736;2024-02-28T13:40:26;3.67;;;2.95;;
28483;SDS011;15704;48.834;8.736;2024-02-28T13:42:53;3.72;;;2.80;;
28483;SDS011;15704;48.834;8.736;2024-02-28T13:45:20;4.13;;;3.00;;
28483;SDS011;15704;48.834;8.736;2024-02-28T13:47:48;3.97;;;3.00;;
28483;SDS011;15704;48.834;8.736;2024-02-28T13:50:14;6.03;;;3.30;;
28483;SDS011;15704;48.834;8.736;2024-02-28T13:52:41;2.97;;;2.50;;
28483;SDS011;15704;48.834;8.736;2024-02-28T13:55:08;3.83;;;2.92;;
28483;SDS011;15704;48.834;8.736;2024-02-28T13:57:36;3.88;;;3.13;;
28483;SDS011;15704;48.834;8.736;2024-02-28T14:00:04;6.55;;;3.30;;
28483;SDS011;15704;48.834;8.736;2024-02-28T14:02:33;3.75;;;3.25;;
28483;SDS011;15704;48.834;8.736;2024-02-28T14:05:00;4.25;;;3.42;;
28483;SDS011;15704;48.834;8.736;2024-02-28T14:07:26;4.95;;;3.20;;
28483;SDS011;15704;48.834;8.736;2024-02-28T14:09:53;4.20;;;3.35;;
28483;SDS011;15704;48.834;8.736;2024-02-28T14:12:20;4.00;;;2.90;;
28483;SDS011;15704;48.834;8.736;2024-02-28T14:14:47;5.15;;;3.53;;
28483;SDS011;15704;48.834;8.736;2024-02-28T14:17:14;4.88;;;2.88;;
28483;SDS011;15704;48.834;8.736;2024-02-28T14:19:41;3.33;;;2.88;;
28483;SDS011;15704;48.834;8.736;2024-02-28T14:22:07;4.97;;;3.25;;
28483;SDS011;15704;48.834;8.736;2024-02-28T14:24:36;3.35;;;2.92;;
28483;SDS011;15704;48.834;8.736;2024-02-28T14:27:05;4.20;;;3.00;;
28483;SDS011;15704;48.834;8.736;2024-02-28T14:29:32;3.63;;;2.88;;
28483;SDS011;15704;48.834;8.736;2024-02-28T14:31:59;4.95;;;3.08;;
28483;SDS011;15704;48.834;8.736;2024-02-28T14:34:26;4.78;;;3.40;;
28483;SDS011;15704;48.834;8.736;2024-02-28T14:36:57;3.88;;;3.08;;
28483;SDS011;15704;48.834;8.736;2024-02-28T14:39:24;4.38;;;3.15;;
28483;SDS011;15704;48.834;8.736;2024-02-28T14:41:51;4.60;;;3.20;;
28483;SDS011;15704;48.834;8.736;2024-02-28T14:44:18;5.30;;;3.78;;
28483;SDS011;15704;48.834;8.736;2024-02-28T14:46:45;5.15;;;3.40;;
28483;SDS011;15704;48.834;8.736;2024-02-28T14:49:12;4.18;;;3.25;;
28483;SDS011;15704;48.834;8.736;2024-02-28T14:51:39;4.75;;;3.22;;
28483;SDS011;15704;48.834;8.736;2024-02-28T14:54:07;4.28;;;3.35;;
28483;SDS011;15704;48.834;8.736;2024-02-28T14:56:34;5.88;;;4.05;;
28483;SDS011;15704;48.834;8.736;2024-02-28T14:59:01;4.60;;;3.55;;
28483;SDS011;15704;48.834;8.736;2024-02-28T15:01:29;4.47;;;3.33;;
28483;SDS011;15704;48.834;8.736;2024-02-28T15:03:57;6.32;;;3.60;;
28483;SDS011;15704;48.834;8.736;2024-02-28T15:06:24;5.15;;;3.38;;